Norfolk, Massachusetts
Current Conditions -  °F | °C
As of 1:53 AM on Wednesday 26 Nov 2014 (Local Time) from KOWD Reporting Station
Clear Clear  
Wind Chill:   Ceiling: Unl
Heat Index:   Visibility: 10mi
Dew Point:   Wind: 0mph
Humidity: 67%   Direction: NA
Pressure: 30.15"   Gusts: NA
Location:  42.12°N, 71.32°W
Report Text: KOWD 260653Z AUTO 00000KT 10SM CLR 06/00 A3015 RMK AO2 SLP210 T00560000
Loading
Personal Weather Stations






























Interactive Weather Map New forecast layout! Learn more

10-Day Weather Forecast

Advertisements
Track Severe Weather on mobile